Galen, Montana
Current Conditions -  °F | °C
As of 1:24 PM on Tuesday 25 Nov 2014 (Local Time) from KBTM Reporting Station
Moderate Snow Moderate Snow  
Wind Chill: 26°   Ceiling: 1200
Heat Index: 32°   Visibility: 0.5mi
Dew Point: 31°   Wind: 6mph
Humidity: 96%   Direction: 340°NNW
Pressure: 30.02"   Gusts: NA
Location:  46.357°N, 112.771°W
Report Text: KBTM 252024Z AUTO 34005KT 1/2SM SN FG FEW005 OVC012 00/M01 A3002 RMK AO2 P0003 T00001006
Loading
Personal Weather Stations






























Interactive Weather Map New forecast layout! Learn more

10-Day Weather Forecast

Advertisements
Track Severe Weather on mobile